createdAt,value
2023-03-21T00:01:54.462Z,25.60
2023-03-21T00:04:26.529Z,25.70
2023-03-21T00:06:54.501Z,24.90
2023-03-21T00:09:21.814Z,24.40
2023-03-21T00:11:48.516Z,26.30
2023-03-21T00:14:18.992Z,25.20
2023-03-21T00:16:50.741Z,25.80
2023-03-21T00:19:20.950Z,24.00
2023-03-21T00:22:05.449Z,23.80
2023-03-21T00:24:32.949Z,22.20
2023-03-21T00:27:15.871Z,22.50
2023-03-21T00:29:50.993Z,24.00
2023-03-21T00:32:22.299Z,23.10
2023-03-21T00:35:40.759Z,23.50
2023-03-21T00:37:37.317Z,22.50
2023-03-21T00:40:23.030Z,23.30
2023-03-21T00:42:52.637Z,22.60
2023-03-21T00:45:19.481Z,22.00
2023-03-21T00:47:46.220Z,21.90
2023-03-21T00:50:13.135Z,22.60
2023-03-21T00:52:41.314Z,21.70
2023-03-21T00:55:14.681Z,21.50
2023-03-21T00:57:43.594Z,20.30
2023-03-21T01:00:12.902Z,22.40
2023-03-21T01:03:14.217Z,20.30
2023-03-21T01:06:04.892Z,21.00
2023-03-21T01:08:52.377Z,21.60
2023-03-21T01:11:23.330Z,20.80
2023-03-21T01:13:56.249Z,19.90
2023-03-21T01:16:28.870Z,18.70
2023-03-21T01:18:56.367Z,19.40
2023-03-21T01:21:23.294Z,20.90
2023-03-21T01:23:49.916Z,20.30
2023-03-21T01:26:16.933Z,17.20
2023-03-21T01:28:45.510Z,18.30
2023-03-21T01:31:16.154Z,19.50
2023-03-21T01:33:43.736Z,19.10
2023-03-21T01:36:25.128Z,19.00
2023-03-21T01:38:57.141Z,18.10
2023-03-21T01:41:41.627Z,18.20
2023-03-21T01:44:18.681Z,20.10
2023-03-21T01:49:50.282Z,17.90
2023-03-21T01:52:37.108Z,18.40
2023-03-21T01:55:12.520Z,17.60
2023-03-21T01:58:09.527Z,16.50
2023-03-21T02:03:50.545Z,14.80
2023-03-21T02:06:40.863Z,17.20
2023-03-21T02:09:22.659Z,15.40
2023-03-21T02:11:49.638Z,14.70
2023-03-21T02:14:28.278Z,15.50
2023-03-21T02:17:10.390Z,13.90
2023-03-21T02:20:29.970Z,13.40
2023-03-21T02:23:25.738Z,14.40
2023-03-21T02:26:10.569Z,13.30
2023-03-21T02:28:48.110Z,12.40
2023-03-21T02:31:26.779Z,12.90
2023-03-21T02:34:24.513Z,13.20
2023-03-21T02:37:03.401Z,14.90
2023-03-21T02:39:40.715Z,13.70
2023-03-21T02:42:22.409Z,13.70
2023-03-21T02:44:57.329Z,12.70
2023-03-21T02:47:36.196Z,11.90
2023-03-21T02:50:15.957Z,12.20
2023-03-21T02:52:47.896Z,12.90
2023-03-21T02:55:20.358Z,12.70
2023-03-21T02:57:56.387Z,12.30
2023-03-21T03:00:29.734Z,12.10
2023-03-21T03:03:08.772Z,12.80
2023-03-21T03:05:44.045Z,12.00
2023-03-21T03:08:36.132Z,12.60
2023-03-21T03:11:18.845Z,14.30
2023-03-21T03:14:31.530Z,12.40
2023-03-21T03:17:02.813Z,11.90
2023-03-21T03:22:27.921Z,11.80
2023-03-21T03:25:18.676Z,12.10
2023-03-21T03:27:55.003Z,11.50
2023-03-21T03:30:29.633Z,12.10
2023-03-21T03:33:03.314Z,11.90
2023-03-21T03:35:30.526Z,11.90
2023-03-21T03:38:02.816Z,11.30
2023-03-21T03:40:49.798Z,10.90
2023-03-21T03:43:51.048Z,10.70
2023-03-21T03:48:56.067Z,10.40
2023-03-21T03:51:36.366Z,10.90
2023-03-21T03:54:30.832Z,12.90
2023-03-21T03:57:01.606Z,13.50
2023-03-21T03:59:28.477Z,11.80
2023-03-21T04:02:11.021Z,10.20
2023-03-21T04:04:38.426Z,11.00
2023-03-21T04:07:06.515Z,11.30
2023-03-21T04:09:43.618Z,10.80
2023-03-21T04:12:13.654Z,10.90
2023-03-21T04:14:45.802Z,11.40
2023-03-21T04:17:15.973Z,11.50
2023-03-21T04:19:42.856Z,11.60
2023-03-21T04:22:09.532Z,10.80
2023-03-21T04:24:40.037Z,10.90
2023-03-21T04:27:06.784Z,9.90
2023-03-21T04:29:42.589Z,11.20
2023-03-21T04:32:25.733Z,10.40
2023-03-21T04:35:01.166Z,10.20
2023-03-21T04:37:28.123Z,9.60
2023-03-21T04:39:55.212Z,10.10
2023-03-21T04:42:22.353Z,10.00
2023-03-21T04:44:49.578Z,11.20
2023-03-21T04:47:17.205Z,9.90
2023-03-21T04:49:43.865Z,9.60
2023-03-21T04:52:11.767Z,9.60
2023-03-21T04:54:38.974Z,10.50
2023-03-21T04:57:05.920Z,9.80
2023-03-21T04:59:32.601Z,10.30
2023-03-21T05:01:59.293Z,10.50
2023-03-21T05:04:27.429Z,11.70
2023-03-21T05:06:56.357Z,10.60
2023-03-21T05:09:23.300Z,10.20
2023-03-21T05:11:50.963Z,10.80
2023-03-21T05:14:22.233Z,9.90
2023-03-21T05:16:53.605Z,10.10
2023-03-21T05:19:34.877Z,10.20
2023-03-21T05:22:08.183Z,11.10
2023-03-21T05:24:39.269Z,10.40
2023-03-21T05:27:06.819Z,9.50
2023-03-21T05:29:39.560Z,10.20
2023-03-21T05:32:07.308Z,9.90
2023-03-21T05:34:34.015Z,8.80
2023-03-21T05:37:01.433Z,9.70
2023-03-21T05:39:38.422Z,9.30
2023-03-21T05:42:10.500Z,10.00
2023-03-21T05:44:40.358Z,9.80
2023-03-21T05:47:08.414Z,10.00
2023-03-21T05:49:39.538Z,10.90
2023-03-21T05:52:06.534Z,10.60
2023-03-21T05:54:33.397Z,10.20
2023-03-21T05:57:00.921Z,11.40
2023-03-21T05:59:47.842Z,9.80
2023-03-21T06:02:14.963Z,9.90
2023-03-21T06:04:41.760Z,10.20
2023-03-21T06:07:08.533Z,11.80
2023-03-21T06:09:38.291Z,11.50
2023-03-21T06:12:05.046Z,10.80
2023-03-21T06:14:38.982Z,11.20
2023-03-21T06:17:25.903Z,10.00
2023-03-21T06:19:56.295Z,11.10
2023-03-21T06:22:29.738Z,10.80
2023-03-21T06:24:56.583Z,11.00
2023-03-21T06:27:23.350Z,11.10
2023-03-21T06:29:53.127Z,11.10
2023-03-21T06:32:20.342Z,11.30
2023-03-21T06:34:48.652Z,10.40
2023-03-21T06:37:15.390Z,11.30
2023-03-21T06:39:42.575Z,11.00
2023-03-21T06:42:09.377Z,11.60
2023-03-21T06:44:36.985Z,12.10
2023-03-21T06:47:06.829Z,11.60
2023-03-21T06:49:34.561Z,12.10
2023-03-21T06:52:06.836Z,12.70
2023-03-21T06:54:33.955Z,13.00
2023-03-21T06:57:05.667Z,13.20
2023-03-21T06:59:37.313Z,12.50
2023-03-21T07:02:07.519Z,13.60
2023-03-21T07:04:38.856Z,15.60
2023-03-21T07:07:06.601Z,15.70
2023-03-21T07:09:33.336Z,14.90
2023-03-21T07:12:03.800Z,15.90
2023-03-21T07:14:42.005Z,17.40
2023-03-21T07:17:08.665Z,20.50
2023-03-21T07:19:35.642Z,20.40
2023-03-21T07:22:02.343Z,21.00
2023-03-21T07:24:29.038Z,24.50
2023-03-21T07:26:56.407Z,22.60
2023-03-21T07:29:23.503Z,22.20
2023-03-21T07:31:50.508Z,22.90
2023-03-21T07:34:17.929Z,22.30
2023-03-21T07:36:45.284Z,23.70
2023-03-21T07:39:12.805Z,24.00
2023-03-21T07:41:39.470Z,23.70
2023-03-21T07:44:23.536Z,25.10
2023-03-21T07:47:00.406Z,25.10
2023-03-21T07:49:27.504Z,22.70
2023-03-21T07:51:54.354Z,25.30
2023-03-21T07:54:22.976Z,24.30
2023-03-21T07:56:49.957Z,20.70
2023-03-21T07:59:16.592Z,24.30
2023-03-21T08:01:43.373Z,24.40
2023-03-21T08:04:10.123Z,21.40
2023-03-21T08:06:36.823Z,24.30
2023-03-21T08:09:04.115Z,23.70
2023-03-21T08:11:34.323Z,25.10
2023-03-21T08:14:01.793Z,24.10
2023-03-21T08:16:28.583Z,26.10
2023-03-21T08:18:55.228Z,24.80
2023-03-21T08:21:21.869Z,25.60
2023-03-21T08:23:48.510Z,24.10
2023-03-21T08:26:18.449Z,24.20
2023-03-21T08:28:46.344Z,25.70
2023-03-21T08:31:15.043Z,26.40
2023-03-21T08:33:41.749Z,23.90
2023-03-21T08:36:09.149Z,26.90
2023-03-21T08:38:36.319Z,26.80
2023-03-21T08:41:03.559Z,28.60
2023-03-21T08:43:30.654Z,27.40
2023-03-21T08:45:57.375Z,27.00
2023-03-21T08:48:25.436Z,27.80
2023-03-21T08:50:52.173Z,27.60
2023-03-21T08:53:18.945Z,29.20
2023-03-21T08:55:45.873Z,27.10
2023-03-21T08:58:12.541Z,26.80
2023-03-21T09:00:39.271Z,28.60
2023-03-21T09:03:05.870Z,23.60
2023-03-21T09:05:33.060Z,27.50
2023-03-21T09:08:01.710Z,26.70
2023-03-21T09:10:28.401Z,28.10
2023-03-21T09:12:56.270Z,29.80
2023-03-21T09:15:29.921Z,24.80
2023-03-21T09:17:58.916Z,26.80
2023-03-21T09:20:31.384Z,26.40
2023-03-21T09:22:59.898Z,29.20
2023-03-21T09:25:31.707Z,26.50
2023-03-21T09:28:04.787Z,26.30
2023-03-21T09:30:33.764Z,27.00
2023-03-21T09:33:02.180Z,29.20
2023-03-21T09:35:29.742Z,26.90
2023-03-21T09:37:59.048Z,27.40
2023-03-21T09:40:41.090Z,25.70
2023-03-21T09:43:18.054Z,26.80
2023-03-21T09:45:59.857Z,27.20
2023-03-21T09:48:57.048Z,26.20
2023-03-21T09:51:31.347Z,26.80
2023-03-21T09:54:07.522Z,27.70
2023-03-21T09:56:37.848Z,24.40
2023-03-21T09:59:07.405Z,24.50
2023-03-21T10:01:41.834Z,24.60
2023-03-21T10:04:12.937Z,21.90
2023-03-21T10:06:42.884Z,25.00
2023-03-21T10:09:12.649Z,24.80
2023-03-21T10:11:53.292Z,26.20
2023-03-21T10:14:31.610Z,25.30
2023-03-21T10:17:04.248Z,23.80
2023-03-21T10:19:30.988Z,26.60
2023-03-21T10:22:03.010Z,25.20
2023-03-21T10:24:33.321Z,27.50
2023-03-21T10:27:02.673Z,26.20
2023-03-21T10:29:37.230Z,28.90
2023-03-21T10:32:04.340Z,30.10
2023-03-21T10:34:41.781Z,30.00
2023-03-21T10:37:08.806Z,31.00
2023-03-21T10:39:44.240Z,31.00
2023-03-21T10:42:32.962Z,31.90
2023-03-21T10:44:59.702Z,28.90
2023-03-21T10:47:27.736Z,26.80
2023-03-21T10:50:07.207Z,32.30
2023-03-21T10:52:36.719Z,29.70
2023-03-21T10:55:18.751Z,30.50
2023-03-21T10:57:47.932Z,28.60
2023-03-21T11:00:23.106Z,26.00
2023-03-21T11:02:53.139Z,27.80
2023-03-21T11:05:40.375Z,31.20
2023-03-21T11:08:13.966Z,30.80
2023-03-21T11:11:06.453Z,31.00
2023-03-21T11:13:38.067Z,32.30
2023-03-21T11:16:11.103Z,32.90
2023-03-21T11:18:44.317Z,32.80
2023-03-21T11:21:13.566Z,29.80
2023-03-21T11:23:48.247Z,33.80
2023-03-21T11:26:36.861Z,34.10
2023-03-21T11:29:16.924Z,34.40
2023-03-21T11:31:44.942Z,34.40
2023-03-21T11:34:27.118Z,33.50
2023-03-21T11:36:59.039Z,28.80
2023-03-21T11:39:29.212Z,24.60
2023-03-21T11:41:56.212Z,23.50
2023-03-21T11:44:29.728Z,26.20
2023-03-21T11:46:56.859Z,26.90
2023-03-21T11:49:24.623Z,28.80
2023-03-21T11:52:13.510Z,29.40
2023-03-21T11:54:49.388Z,25.70
2023-03-21T11:57:45.604Z,25.30
2023-03-21T12:00:22.815Z,17.40
2023-03-21T12:02:57.252Z,18.80
2023-03-21T12:05:27.670Z,17.20
2023-03-21T12:08:12.837Z,16.10
2023-03-21T12:10:55.257Z,17.00
2023-03-21T12:13:40.981Z,17.70
2023-03-21T12:16:26.298Z,18.50
2023-03-21T12:19:49.027Z,17.00
2023-03-21T12:22:34.219Z,14.90
2023-03-21T12:25:12.272Z,14.50
2023-03-21T12:27:44.798Z,14.70
2023-03-21T12:30:34.845Z,14.20
2023-03-21T12:33:26.201Z,12.00
2023-03-21T12:36:30.385Z,12.00
2023-03-21T12:39:16.396Z,12.20
2023-03-21T12:42:03.011Z,12.50
2023-03-21T12:44:34.238Z,14.30
2023-03-21T12:47:06.978Z,10.60
2023-03-21T12:49:48.517Z,9.20
2023-03-21T12:52:27.039Z,11.00
2023-03-21T12:55:01.898Z,11.10
2023-03-21T12:57:47.812Z,12.10
2023-03-21T13:00:26.148Z,13.20
2023-03-21T13:03:04.301Z,12.40
2023-03-21T13:05:38.958Z,13.10
2023-03-21T13:08:15.767Z,12.80
2023-03-21T13:10:45.381Z,14.30
2023-03-21T13:13:34.077Z,15.40
2023-03-21T13:16:12.669Z,16.20
2023-03-21T13:18:55.777Z,17.10
2023-03-21T13:21:46.894Z,16.50
2023-03-21T13:24:28.142Z,17.60
2023-03-21T13:27:16.513Z,20.60
2023-03-21T13:29:50.579Z,21.50
2023-03-21T13:32:29.857Z,21.20
2023-03-21T13:35:01.483Z,20.30
2023-03-21T13:37:39.050Z,20.60
2023-03-21T13:40:20.251Z,20.40
2023-03-21T13:42:53.726Z,21.50
2023-03-21T13:45:45.084Z,22.30
2023-03-21T13:48:29.784Z,21.00
2023-03-21T13:51:02.274Z,20.00
2023-03-21T13:54:03.597Z,21.70
2023-03-21T13:56:48.026Z,19.80
2023-03-21T13:59:38.410Z,21.10
2023-03-21T14:02:23.536Z,20.50
2023-03-21T14:05:05.384Z,20.30
2023-03-21T14:07:41.601Z,20.00
2023-03-21T14:10:19.449Z,17.90
2023-03-21T14:12:47.547Z,18.60
2023-03-21T14:15:20.781Z,19.90
2023-03-21T14:18:06.471Z,20.20
2023-03-21T14:20:43.819Z,20.70
2023-03-21T14:23:17.458Z,23.30
2023-03-21T14:25:47.813Z,21.50
2023-03-21T14:28:17.559Z,16.90
2023-03-21T14:30:44.934Z,18.20
2023-03-21T14:33:36.714Z,20.20
2023-03-21T14:36:09.010Z,19.50
2023-03-21T14:38:38.654Z,19.80
2023-03-21T14:41:19.942Z,21.20
2023-03-21T14:44:01.604Z,19.50
2023-03-21T14:46:28.325Z,18.00
2023-03-21T14:48:55.070Z,21.00
2023-03-21T14:51:23.768Z,18.80
2023-03-21T14:53:50.487Z,17.60
2023-03-21T14:56:23.722Z,18.70
2023-03-21T14:58:52.198Z,20.00
2023-03-21T15:01:31.181Z,20.40
2023-03-21T15:04:00.760Z,20.50
2023-03-21T15:06:27.565Z,19.00
2023-03-21T15:09:00.864Z,21.40
2023-03-21T15:11:35.186Z,19.90
2023-03-21T15:14:06.022Z,20.90
2023-03-21T15:16:33.763Z,19.70
2023-03-21T15:19:05.338Z,19.10
2023-03-21T15:21:35.136Z,19.80
2023-03-21T15:24:25.333Z,18.20
2023-03-21T15:26:57.199Z,18.20
2023-03-21T15:29:25.028Z,18.80
2023-03-21T15:31:51.743Z,19.20
2023-03-21T15:34:26.404Z,20.10
2023-03-21T15:37:05.632Z,19.80
2023-03-21T15:39:35.462Z,18.00
2023-03-21T15:42:04.179Z,19.00
2023-03-21T15:44:32.528Z,18.00
2023-03-21T15:46:59.454Z,19.00
2023-03-21T15:49:34.462Z,18.70
2023-03-21T15:52:11.400Z,18.40
2023-03-21T15:54:56.975Z,20.60
2023-03-21T15:57:32.826Z,17.60
2023-03-21T16:00:12.108Z,17.20
2023-03-21T16:02:42.488Z,16.70
2023-03-21T16:05:29.354Z,18.00
2023-03-21T16:08:23.120Z,18.10
2023-03-21T16:10:49.818Z,16.90
2023-03-21T16:13:17.523Z,17.50
2023-03-21T16:15:45.398Z,17.00
2023-03-21T16:18:15.927Z,16.80
2023-03-21T16:20:45.270Z,17.50
2023-03-21T16:23:13.422Z,17.70
2023-03-21T16:25:42.091Z,18.80
2023-03-21T16:28:16.517Z,17.30
2023-03-21T16:30:44.292Z,17.00
2023-03-21T16:33:12.494Z,18.10
2023-03-21T16:35:39.918Z,17.90
2023-03-21T16:38:06.915Z,18.50
2023-03-21T16:40:38.947Z,17.80
2023-03-21T16:43:05.722Z,17.60
2023-03-21T16:45:32.837Z,17.10
2023-03-21T16:48:00.756Z,18.00
2023-03-21T16:50:37.949Z,18.40
2023-03-21T16:53:04.728Z,15.80
2023-03-21T16:55:34.879Z,18.70
2023-03-21T16:58:01.777Z,20.00
2023-03-21T17:00:30.860Z,18.90
2023-03-21T17:03:04.519Z,19.80
2023-03-21T17:05:31.232Z,19.60
2023-03-21T17:08:04.261Z,18.40
2023-03-21T17:10:32.834Z,17.50
2023-03-21T17:12:59.948Z,19.60
2023-03-21T17:15:27.165Z,19.10
2023-03-21T17:17:57.945Z,18.40
2023-03-21T17:20:29.227Z,17.40
2023-03-21T17:22:55.978Z,17.00
2023-03-21T17:25:22.852Z,18.60
2023-03-21T17:27:51.728Z,18.90
2023-03-21T17:30:33.791Z,18.60
2023-03-21T17:33:01.152Z,19.10
2023-03-21T17:35:29.075Z,19.00
2023-03-21T17:37:58.659Z,19.70
2023-03-21T17:40:31.166Z,19.50
2023-03-21T17:45:25.644Z,16.30
2023-03-21T17:47:53.287Z,18.10
2023-03-21T17:50:22.697Z,18.60
2023-03-21T17:52:50.881Z,19.30
2023-03-21T17:55:21.942Z,19.40
2023-03-21T17:57:49.603Z,19.70
2023-03-21T18:00:23.957Z,20.90
2023-03-21T18:02:51.883Z,18.20
2023-03-21T18:05:21.323Z,18.60
2023-03-21T18:10:37.152Z,17.40
2023-03-21T18:13:04.036Z,24.70
2023-03-21T18:15:31.183Z,31.70
2023-03-21T18:17:58.740Z,33.30
2023-03-21T18:20:49.981Z,33.70
2023-03-21T18:23:16.062Z,34.90
2023-03-21T18:25:43.102Z,31.10
2023-03-21T18:28:12.159Z,31.10
2023-03-21T18:31:05.300Z,33.00
2023-03-21T18:33:27.643Z,35.30
2023-03-21T18:35:58.956Z,35.10
2023-03-21T18:38:29.185Z,35.70
2023-03-21T18:40:56.818Z,34.60
2023-03-21T18:46:10.974Z,35.20
2023-03-21T18:48:39.397Z,33.90
2023-03-21T18:51:16.195Z,31.00
2023-03-21T18:53:43.154Z,30.70
2023-03-21T18:56:10.666Z,29.30
2023-03-21T18:58:39.132Z,30.10
2023-03-21T19:01:08.387Z,31.40
2023-03-21T19:03:37.477Z,28.60
2023-03-21T19:06:06.578Z,28.70
2023-03-21T19:08:42.222Z,26.00
2023-03-21T19:11:10.261Z,26.40
2023-03-21T19:13:36.879Z,28.40
2023-03-21T19:16:03.840Z,29.80
2023-03-21T19:21:19.225Z,28.80
2023-03-21T19:26:33.727Z,26.90
2023-03-21T19:29:04.569Z,27.70
2023-03-21T19:31:45.425Z,27.80
2023-03-21T19:34:17.132Z,28.90
2023-03-21T19:36:46.023Z,26.50
2023-03-21T19:39:24.537Z,24.60
2023-03-21T19:41:55.267Z,23.30
2023-03-21T19:44:28.321Z,25.40
2023-03-21T19:46:54.941Z,24.60
2023-03-21T19:49:34.580Z,22.40
2023-03-21T19:52:10.456Z,23.60
2023-03-21T19:54:37.654Z,25.20
2023-03-21T19:57:04.592Z,21.40
2023-03-21T19:59:32.210Z,22.10
2023-03-21T20:02:17.999Z,22.20
2023-03-21T20:04:46.336Z,22.70
2023-03-21T20:07:13.309Z,22.40
2023-03-21T20:09:52.353Z,21.60
2023-03-21T20:12:20.213Z,21.30
2023-03-21T20:14:49.104Z,21.50
2023-03-21T20:17:16.618Z,22.20
2023-03-21T20:19:43.454Z,21.90
2023-03-21T20:22:21.772Z,22.60
2023-03-21T20:24:53.793Z,22.10
2023-03-21T20:27:25.146Z,21.30
2023-03-21T20:30:10.141Z,22.10
2023-03-21T20:32:38.566Z,21.50
2023-03-21T20:35:18.812Z,22.90
2023-03-21T20:37:49.879Z,20.50
2023-03-21T20:40:18.698Z,21.30
2023-03-21T20:42:48.555Z,22.50
2023-03-21T20:45:17.240Z,21.00
2023-03-21T20:47:44.413Z,21.20
2023-03-21T20:50:14.243Z,22.50
2023-03-21T20:53:04.823Z,23.50
2023-03-21T20:55:30.873Z,23.90
2023-03-21T20:58:01.934Z,22.30
2023-03-21T21:00:29.836Z,21.10
2023-03-21T21:02:57.916Z,21.90
2023-03-21T21:05:30.744Z,21.40
2023-03-21T21:08:01.750Z,24.30
2023-03-21T21:10:28.822Z,22.60
2023-03-21T21:12:55.655Z,22.30
2023-03-21T21:15:22.480Z,21.90
2023-03-21T21:18:07.069Z,21.60
2023-03-21T21:20:35.395Z,22.80
2023-03-21T21:23:02.183Z,24.40
2023-03-21T21:25:32.443Z,23.20
2023-03-21T21:28:01.765Z,21.20
2023-03-21T21:30:29.599Z,21.40
2023-03-21T21:32:59.589Z,22.70
2023-03-21T21:35:26.950Z,21.30
2023-03-21T21:37:53.667Z,20.10
2023-03-21T21:40:23.454Z,22.20
2023-03-21T21:42:50.337Z,21.10
2023-03-21T21:45:19.343Z,19.90
2023-03-21T21:47:46.720Z,20.30
2023-03-21T21:50:13.769Z,22.00
2023-03-21T21:52:43.856Z,21.20
2023-03-21T21:55:11.061Z,20.00
2023-03-21T21:57:39.832Z,20.50
2023-03-21T22:00:12.961Z,21.60
2023-03-21T22:02:41.692Z,21.40
2023-03-21T22:05:09.428Z,20.90
2023-03-21T22:07:37.768Z,22.50
2023-03-21T22:10:05.411Z,22.20
2023-03-21T22:12:32.525Z,23.70
2023-03-21T22:14:59.278Z,21.00
2023-03-21T22:17:26.390Z,21.30
2023-03-21T22:20:05.088Z,21.00
2023-03-21T22:22:34.263Z,20.40
2023-03-21T22:25:01.130Z,20.10
2023-03-21T22:27:27.899Z,20.60
2023-03-21T22:29:54.837Z,19.80
2023-03-21T22:32:21.611Z,20.80
2023-03-21T22:34:48.398Z,20.60
2023-03-21T22:37:15.562Z,20.20
2023-03-21T22:39:42.472Z,20.70
2023-03-21T22:42:09.138Z,19.40
2023-03-21T22:44:36.108Z,19.30
2023-03-21T22:47:05.412Z,19.40
2023-03-21T22:49:32.919Z,20.20
2023-03-21T22:52:01.290Z,19.10
2023-03-21T22:54:28.059Z,21.00
2023-03-21T22:56:55.526Z,19.60
2023-03-21T22:59:22.809Z,19.10
2023-03-21T23:01:49.685Z,20.10
2023-03-21T23:04:16.994Z,18.70
2023-03-21T23:06:44.315Z,19.30
2023-03-21T23:09:11.236Z,19.40
2023-03-21T23:11:39.056Z,21.60
2023-03-21T23:14:08.449Z,19.60
2023-03-21T23:16:38.490Z,18.30
2023-03-21T23:19:06.246Z,18.50
2023-03-21T23:21:36.663Z,18.80
2023-03-21T23:24:04.397Z,18.90
2023-03-21T23:26:31.228Z,19.10
2023-03-21T23:28:57.880Z,18.70
2023-03-21T23:31:27.150Z,19.10
2023-03-21T23:33:55.084Z,19.20
2023-03-21T23:36:22.651Z,19.10
2023-03-21T23:38:50.435Z,19.70
2023-03-21T23:41:20.049Z,18.40
2023-03-21T23:43:48.017Z,19.90
2023-03-21T23:46:16.322Z,20.90
2023-03-21T23:48:45.108Z,20.60
2023-03-21T23:51:14.545Z,20.00
2023-03-21T23:53:41.317Z,19.20
2023-03-21T23:56:17.172Z,19.10
2023-03-21T23:58:43.983Z,19.20
